Time;durP1;ratioP1;P1;durP2;ratioP2;P2;SDS_P1;SDS_P2;PMS_P1;PMS_P2;Temp;Humidity;BMP_temperature;BMP_pressure;BME280_temperature;BME280_humidity;BME280_pressure;Samples;Min_cycle;Max_cycle;Signal;HPM_P1;HPM_P2
2024/03/12 00:02:07;;;;;;;2.35;1.85;;;;;;;;;;6270997;22;20008;-73
2024/03/12 00:04:33;;;;;;;1.80;1.70;;;;;;;;;;6271405;22;20050;-72
2024/03/12 00:07:01;;;;;;;1.90;1.80;;;;;;;;;;6271118;22;20012;-71
2024/03/12 00:09:27;;;;;;;1.77;1.67;;;;;;;;;;6272047;22;20011;-72
2024/03/12 00:11:53;;;;;;;1.45;1.42;;;;;;;;;;6273017;22;20014;-72
2024/03/12 00:14:19;;;;;;;1.55;1.45;;;;;;;;;;6271546;22;20024;-72
2024/03/12 00:16:45;;;;;;;2.00;1.90;;;;;;;;;;6271890;22;20031;-73
2024/03/12 00:19:11;;;;;;;1.80;1.70;;;;;;;;;;6272594;22;20042;-73
2024/03/12 00:21:37;;;;;;;2.10;2.00;;;;;;;;;;6272006;22;20011;-73
2024/03/12 00:24:05;;;;;;;2.17;1.80;;;;;;;;;;6271682;22;20538;-71
2024/03/12 00:26:32;;;;;;;1.02;1.02;;;;;;;;;;6272798;22;20011;-73
2024/03/12 00:28:59;;;;;;;1.48;1.42;;;;;;;;;;6272797;22;20043;-73
2024/03/12 00:31:25;;;;;;;1.00;1.00;;;;;;;;;;6271223;22;20491;-73
2024/03/12 00:33:51;;;;;;;0.88;0.88;;;;;;;;;;6269441;22;20015;-71
2024/03/12 00:36:17;;;;;;;2.67;1.95;;;;;;;;;;6245161;22;20508;-72
2024/03/12 00:38:43;;;;;;;1.65;1.63;;;;;;;;;;6271020;22;20024;-73
2024/03/12 00:41:09;;;;;;;1.75;1.67;;;;;;;;;;6272447;22;20057;-72
2024/03/12 00:43:35;;;;;;;1.70;1.60;;;;;;;;;;6269292;22;20417;-73
2024/03/12 00:46:02;;;;;;;1.15;1.15;;;;;;;;;;6245866;22;20086;-73
2024/03/12 00:48:28;;;;;;;1.20;1.05;;;;;;;;;;6272357;22;20319;-72
2024/03/12 00:50:55;;;;;;;2.55;1.80;;;;;;;;;;6272759;22;20356;-73
2024/03/12 00:53:21;;;;;;;1.85;1.75;;;;;;;;;;6271792;22;20019;-72
2024/03/12 00:55:47;;;;;;;3.80;1.80;;;;;;;;;;6272110;22;20329;-73
2024/03/12 00:58:15;;;;;;;1.33;1.33;;;;;;;;;;6272146;22;20031;-73
2024/03/12 01:00:41;;;;;;;1.70;1.60;;;;;;;;;;6272029;22;20018;-73
2024/03/12 01:03:11;;;;;;;2.53;1.70;;;;;;;;;;6269330;22;20359;-72
2024/03/12 01:05:37;;;;;;;1.95;1.85;;;;;;;;;;6272795;22;20034;-72
2024/03/12 01:08:05;;;;;;;1.55;1.48;;;;;;;;;;6270682;22;20012;-72
2024/03/12 01:10:33;;;;;;;2.25;2.05;;;;;;;;;;6272343;22;20090;-72
2024/03/12 01:12:59;;;;;;;1.98;1.83;;;;;;;;;;6269510;22;20474;-72
2024/03/12 01:15:26;;;;;;;2.03;1.83;;;;;;;;;;6245282;22;20494;-72
2024/03/12 01:17:55;;;;;;;1.92;1.83;;;;;;;;;;6295928;22;20494;-72
2024/03/12 01:20:21;;;;;;;2.45;2.17;;;;;;;;;;6273227;22;20007;-72
2024/03/12 01:22:50;;;;;;;1.92;1.83;;;;;;;;;;6271198;22;20440;-72
2024/03/12 01:25:16;;;;;;;2.28;2.17;;;;;;;;;;6273155;22;20004;-72
2024/03/12 01:27:42;;;;;;;2.00;1.90;;;;;;;;;;6298934;22;20466;-72
2024/03/12 01:30:14;;;;;;;2.10;1.52;;;;;;;;;;6272988;22;20019;-72
2024/03/12 01:32:40;;;;;;;0.90;0.90;;;;;;;;;;6272410;22;20693;-73
2024/03/12 01:35:09;;;;;;;2.15;1.83;;;;;;;;;;6272990;22;20057;-73
2024/03/12 01:37:35;;;;;;;1.17;1.17;;;;;;;;;;6273530;22;20475;-72
2024/03/12 01:40:09;;;;;;;1.50;1.38;;;;;;;;;;6272883;22;20011;-73
2024/03/12 01:42:35;;;;;;;4.65;4.32;;;;;;;;;;6273816;22;20007;-73
2024/03/12 01:45:01;;;;;;;3.83;1.90;;;;;;;;;;6297425;22;20059;-72
2024/03/12 01:47:29;;;;;;;6.75;1.95;;;;;;;;;;6274551;22;20046;-73
2024/03/12 01:49:55;;;;;;;1.60;1.33;;;;;;;;;;6274379;22;20007;-74
2024/03/12 01:52:22;;;;;;;0.93;0.93;;;;;;;;;;6299544;22;20011;-73
2024/03/12 01:54:51;;;;;;;2.00;1.90;;;;;;;;;;6270612;22;20016;-72
2024/03/12 01:57:17;;;;;;;2.83;1.80;;;;;;;;;;6272301;22;20020;-73
2024/03/12 01:59:43;;;;;;;2.10;2.00;;;;;;;;;;6272260;22;20776;-72
2024/03/12 02:02:15;;;;;;;2.10;2.00;;;;;;;;;;6271796;22;20007;-71
2024/03/12 02:04:41;;;;;;;2.20;2.00;;;;;;;;;;6271367;22;20540;-73
2024/03/12 02:07:09;;;;;;;2.42;1.98;;;;;;;;;;6273619;22;20046;-72
2024/03/12 02:09:35;;;;;;;1.80;1.70;;;;;;;;;;6273743;22;20011;-74
2024/03/12 02:12:01;;;;;;;3.20;1.85;;;;;;;;;;6273657;22;20015;-75
2024/03/12 02:14:27;;;;;;;2.13;1.85;;;;;;;;;;6272713;22;20026;-73
2024/03/12 02:16:53;;;;;;;2.30;2.05;;;;;;;;;;6272138;22;20015;-74
2024/03/12 02:19:39;;;;;;;5.75;2.20;;;;;;;;;;6251341;22;20007;-73
2024/03/12 02:22:06;;;;;;;1.90;1.80;;;;;;;;;;6273451;22;20031;-74
2024/03/12 02:24:32;;;;;;;1.30;1.30;;;;;;;;;;6245288;22;20503;-74
2024/03/12 02:26:58;;;;;;;2.83;1.67;;;;;;;;;;6271760;22;20456;-73
2024/03/12 02:29:24;;;;;;;1.75;1.67;;;;;;;;;;6246965;22;20016;-73
2024/03/12 02:31:49;;;;;;;2.75;2.00;;;;;;;;;;6271786;22;20011;-72
2024/03/12 02:34:15;;;;;;;2.20;2.00;;;;;;;;;;6270190;22;20050;-73
2024/03/12 02:36:41;;;;;;;1.85;1.60;;;;;;;;;;6273050;22;20011;-74
2024/03/12 02:39:07;;;;;;;2.42;1.80;;;;;;;;;;6271724;22;20026;-73
2024/03/12 02:41:33;;;;;;;6.45;1.85;;;;;;;;;;6273594;22;20034;-72
2024/03/12 02:43:59;;;;;;;2.05;1.88;;;;;;;;;;6245190;22;20015;-72
2024/03/12 02:46:26;;;;;;;1.50;1.42;;;;;;;;;;6246722;22;20038;-73
2024/03/12 02:48:52;;;;;;;3.83;2.00;;;;;;;;;;6273343;22;20065;-73
2024/03/12 02:51:19;;;;;;;1.60;1.50;;;;;;;;;;6273234;22;20015;-73
2024/03/12 02:53:45;;;;;;;2.45;1.85;;;;;;;;;;6296360;22;20472;-73
2024/03/12 02:56:12;;;;;;;2.00;1.90;;;;;;;;;;6246711;22;20004;-73
2024/03/12 02:58:37;;;;;;;1.50;1.40;;;;;;;;;;6246768;22;20055;-74
2024/03/12 03:01:04;;;;;;;1.63;1.52;;;;;;;;;;6221578;22;20022;-73
2024/03/12 03:03:30;;;;;;;4.07;2.25;;;;;;;;;;6270275;22;20022;-73
2024/03/12 03:05:56;;;;;;;5.20;1.80;;;;;;;;;;6271300;22;20019;-74
2024/03/12 03:08:22;;;;;;;2.50;2.00;;;;;;;;;;6273415;22;20055;-73
2024/03/12 03:10:48;;;;;;;1.55;1.40;;;;;;;;;;6271944;22;20019;-74
2024/03/12 03:13:14;;;;;;;4.55;1.73;;;;;;;;;;6245118;22;20015;-73
2024/03/12 03:15:41;;;;;;;1.85;1.73;;;;;;;;;;6273099;22;20007;-73
2024/03/12 03:18:07;;;;;;;2.20;2.00;;;;;;;;;;6273111;22;20478;-74
2024/03/12 03:20:33;;;;;;;4.13;2.25;;;;;;;;;;6272811;22;20011;-72
2024/03/12 03:22:59;;;;;;;3.33;2.80;;;;;;;;;;6295730;22;20012;-71
2024/03/12 03:25:26;;;;;;;3.80;1.83;;;;;;;;;;6273141;22;20031;-72
2024/03/12 03:27:52;;;;;;;2.65;2.20;;;;;;;;;;6271133;22;20046;-71
2024/03/12 03:30:17;;;;;;;1.88;1.80;;;;;;;;;;6271099;22;20008;-73
2024/03/12 03:32:44;;;;;;;1.65;1.55;;;;;;;;;;6297482;22;20015;-74
2024/03/12 03:35:13;;;;;;;2.20;2.08;;;;;;;;;;6272371;22;20038;-74
2024/03/12 03:37:40;;;;;;;1.73;1.63;;;;;;;;;;6298384;22;20019;-73
2024/03/12 03:40:17;;;;;;;5.53;2.22;;;;;;;;;;6273216;22;20082;-73
2024/03/12 03:42:44;;;;;;;2.88;2.08;;;;;;;;;;6297483;22;20012;-75
2024/03/12 03:45:10;;;;;;;2.20;2.10;;;;;;;;;;6271039;22;20019;-73
2024/03/12 03:47:35;;;;;;;1.90;1.80;;;;;;;;;;6271992;22;20018;-74
2024/03/12 03:50:03;;;;;;;2.67;2.35;;;;;;;;;;6246518;22;20102;-73
2024/03/12 03:52:30;;;;;;;6.40;1.90;;;;;;;;;;6299013;22;20016;-74
2024/03/12 03:54:55;;;;;;;2.17;2.08;;;;;;;;;;6272225;22;20098;-74
2024/03/12 03:57:22;;;;;;;1.60;1.50;;;;;;;;;;6247697;22;20021;-74
2024/03/12 03:59:49;;;;;;;1.70;1.60;;;;;;;;;;6279651;22;20047;-74
2024/03/12 04:02:16;;;;;;;3.35;2.03;;;;;;;;;;6279920;22;20431;-73
2024/03/12 04:04:42;;;;;;;2.17;2.08;;;;;;;;;;6282623;22;20031;-74
2024/03/12 04:07:09;;;;;;;2.33;2.13;;;;;;;;;;6280255;22;20023;-74
2024/03/12 04:09:34;;;;;;;1.60;1.50;;;;;;;;;;6274835;22;20011;-74
2024/03/12 04:12:00;;;;;;;2.22;2.10;;;;;;;;;;6271673;22;20018;-73
2024/03/12 04:14:26;;;;;;;2.20;2.05;;;;;;;;;;6271815;22;20360;-73
2024/03/12 04:19:37;;;;;;;2.45;2.25;;;;;;;;;;6271678;22;20011;-73
2024/03/12 04:22:05;;;;;;;1.73;1.63;;;;;;;;;;6272575;22;20352;-73
2024/03/12 04:24:31;;;;;;;2.70;2.03;;;;;;;;;;6271857;22;20125;-73
2024/03/12 04:26:57;;;;;;;2.42;2.22;;;;;;;;;;6270601;22;20012;-74
2024/03/12 04:29:23;;;;;;;2.17;2.05;;;;;;;;;;6270389;22;20625;-74
2024/03/12 04:31:49;;;;;;;2.30;2.20;;;;;;;;;;6272377;22;20008;-73
2024/03/12 04:34:15;;;;;;;4.72;2.20;;;;;;;;;;6272124;22;20027;-74
2024/03/12 04:36:41;;;;;;;3.80;2.28;;;;;;;;;;6245608;22;20069;-73
2024/03/12 04:42:11;;;;;;;2.90;2.58;;;;;;;;;;6208934;23;20008;-74
2024/03/12 04:44:37;;;;;;;2.33;2.22;;;;;;;;;;6207898;22;20020;-75
2024/03/12 04:47:04;;;;;;;6.72;2.17;;;;;;;;;;6221676;22;20015;-75
2024/03/12 04:49:30;;;;;;;10.43;1.75;;;;;;;;;;6271177;22;20016;-73
2024/03/12 04:51:56;;;;;;;2.88;2.38;;;;;;;;;;6272327;22;20018;-75
2024/03/12 04:54:21;;;;;;;2.30;2.20;;;;;;;;;;6271418;22;20020;-75
2024/03/12 04:56:50;;;;;;;6.35;2.42;;;;;;;;;;6271873;22;20007;-75
2024/03/12 04:59:15;;;;;;;1.80;1.70;;;;;;;;;;6269488;22;20041;-72
2024/03/12 05:01:45;;;;;;;2.28;2.13;;;;;;;;;;6245466;22;20527;-72
2024/03/12 05:04:14;;;;;;;2.65;2.45;;;;;;;;;;6270746;22;20388;-72
2024/03/12 05:06:40;;;;;;;1.92;1.83;;;;;;;;;;6272527;22;20042;-73
2024/03/12 05:09:06;;;;;;;2.60;2.40;;;;;;;;;;6270351;22;20015;-73
2024/03/12 05:11:32;;;;;;;6.15;2.50;;;;;;;;;;6270654;22;20016;-72
2024/03/12 05:14:04;;;;;;;2.30;2.20;;;;;;;;;;6269073;22;20016;-73
2024/03/12 05:16:31;;;;;;;7.72;2.50;;;;;;;;;;6219008;22;20038;-71
2024/03/12 05:19:05;;;;;;;2.33;2.22;;;;;;;;;;6271935;22;20020;-73
2024/03/12 05:21:35;;;;;;;2.95;2.70;;;;;;;;;;6272097;22;20455;-72
2024/03/12 05:24:06;;;;;;;2.40;2.20;;;;;;;;;;6219356;22;20027;-74
2024/03/12 05:26:32;;;;;;;2.95;2.30;;;;;;;;;;6272128;22;20011;-72
2024/03/12 05:28:58;;;;;;;2.70;2.50;;;;;;;;;;6244346;22;20517;-72
2024/03/12 05:31:32;;;;;;;1.92;1.83;;;;;;;;;;6272716;22;20039;-72
2024/03/12 05:34:27;;;;;;;2.65;2.45;;;;;;;;;;6268316;22;20106;-72
2024/03/12 05:37:40;;;;;;;2.97;2.67;;;;;;;;;;6260918;22;20008;-74
2024/03/12 05:40:16;;;;;;;3.28;2.97;;;;;;;;;;6252166;22;20455;-74
2024/03/12 05:48:31;;;;;;;3.17;2.88;;;;;;;;;;6223066;22;20034;-73
2024/03/12 05:50:59;;;;;;;3.08;2.38;;;;;;;;;;6271987;22;20015;-72
2024/03/12 05:53:25;;;;;;;2.65;2.45;;;;;;;;;;6269672;22;20462;-72
2024/03/12 05:55:51;;;;;;;2.30;2.20;;;;;;;;;;6268582;22;20042;-72
2024/03/12 05:58:17;;;;;;;4.45;2.80;;;;;;;;;;6271572;22;20019;-72
2024/03/12 06:01:18;;;;;;;5.13;2.92;;;;;;;;;;6271822;22;20014;-73
2024/03/12 06:03:57;;;;;;;5.53;2.75;;;;;;;;;;6242434;22;20019;-72
2024/03/12 06:06:24;;;;;;;4.28;2.53;;;;;;;;;;6269406;22;20435;-73
2024/03/12 06:08:50;;;;;;;3.95;2.80;;;;;;;;;;6195438;22;20370;-70
2024/03/12 06:11:22;;;;;;;2.38;2.28;;;;;;;;;;6271464;22;20012;-75
2024/03/12 06:13:54;;;;;;;6.18;2.85;;;;;;;;;;6242607;22;20106;-75
2024/03/12 06:16:21;;;;;;;2.88;2.67;;;;;;;;;;6199262;22;20014;-74
2024/03/12 06:18:47;;;;;;;3.03;2.72;;;;;;;;;;6220564;22;20046;-75
2024/03/12 06:21:20;;;;;;;3.05;2.40;;;;;;;;;;6223833;22;20007;-74
2024/03/12 06:23:46;;;;;;;5.22;2.83;;;;;;;;;;6196265;22;20019;-74
2024/03/12 06:26:26;;;;;;;2.80;2.33;;;;;;;;;;6213356;22;20015;-73
2024/03/12 06:28:52;;;;;;;4.00;2.55;;;;;;;;;;6197690;22;20047;-73
2024/03/12 06:31:29;;;;;;;2.92;2.72;;;;;;;;;;6190106;23;20011;-75
2024/03/12 06:34:02;;;;;;;3.92;3.30;;;;;;;;;;6236892;22;20115;-74
2024/03/12 06:36:28;;;;;;;3.38;3.00;;;;;;;;;;6165297;23;20012;-74
2024/03/12 06:38:55;;;;;;;4.30;2.70;;;;;;;;;;6164879;23;20027;-73
2024/03/12 06:41:24;;;;;;;5.10;3.03;;;;;;;;;;6190522;23;20030;-74
2024/03/12 06:43:50;;;;;;;3.80;2.90;;;;;;;;;;6213725;23;20016;-74
2024/03/12 06:46:19;;;;;;;2.85;2.63;;;;;;;;;;6165576;23;20380;-74
2024/03/12 06:48:54;;;;;;;3.15;2.72;;;;;;;;;;6168279;23;20027;-74
2024/03/12 06:51:24;;;;;;;3.30;3.00;;;;;;;;;;6192069;23;20012;-73
2024/03/12 06:54:07;;;;;;;3.40;3.13;;;;;;;;;;6167611;23;20023;-74
2024/03/12 06:56:41;;;;;;;4.78;3.55;;;;;;;;;;6165501;23;20012;-74
2024/03/12 06:59:08;;;;;;;2.97;2.78;;;;;;;;;;6215033;23;20047;-74
2024/03/12 07:01:40;;;;;;;2.78;2.40;;;;;;;;;;6199067;22;20012;-74
2024/03/12 07:04:16;;;;;;;3.28;3.03;;;;;;;;;;6270728;22;20540;-74
2024/03/12 07:07:23;;;;;;;3.20;2.90;;;;;;;;;;6255591;22;20554;-74
2024/03/12 07:09:51;;;;;;;3.40;3.10;;;;;;;;;;6271805;22;20069;-74
2024/03/12 07:12:18;;;;;;;4.32;3.15;;;;;;;;;;6273785;22;20359;-74
2024/03/12 07:14:54;;;;;;;3.72;2.65;;;;;;;;;;6273289;22;20077;-74
2024/03/12 07:17:21;;;;;;;3.38;2.50;;;;;;;;;;6272942;22;20386;-74
2024/03/12 07:19:49;;;;;;;4.53;2.80;;;;;;;;;;6246912;22;20023;-74
2024/03/12 07:22:19;;;;;;;3.13;2.92;;;;;;;;;;6272242;22;20439;-74
2024/03/12 07:24:48;;;;;;;7.35;3.13;;;;;;;;;;6221646;22;20020;-74
2024/03/12 07:27:14;;;;;;;7.10;2.47;;;;;;;;;;6273640;22;20016;-74
2024/03/12 07:29:43;;;;;;;2.67;2.55;;;;;;;;;;6274023;22;20379;-74
2024/03/12 07:32:09;;;;;;;7.78;2.95;;;;;;;;;;6273479;22;20003;-74
2024/03/12 07:34:39;;;;;;;2.90;2.63;;;;;;;;;;6272673;22;20023;-74
2024/03/12 07:37:06;;;;;;;3.05;2.65;;;;;;;;;;6273490;22;20010;-74
2024/03/12 07:39:34;;;;;;;2.78;2.58;;;;;;;;;;6272353;22;20015;-74
2024/03/12 07:42:08;;;;;;;3.30;2.88;;;;;;;;;;6247525;22;20045;-74
2024/03/12 07:44:35;;;;;;;3.30;3.03;;;;;;;;;;6272903;22;20019;-74
2024/03/12 07:47:04;;;;;;;5.82;3.08;;;;;;;;;;6273432;22;20042;-74
2024/03/12 07:49:32;;;;;;;2.80;2.60;;;;;;;;;;6275373;22;20011;-74
2024/03/12 07:52:00;;;;;;;3.00;2.80;;;;;;;;;;6272048;22;20046;-74
2024/03/12 07:54:29;;;;;;;2.95;2.65;;;;;;;;;;6272566;22;20026;-74
2024/03/12 07:56:55;;;;;;;4.45;3.08;;;;;;;;;;6221443;22;20007;-74
2024/03/12 07:59:22;;;;;;;6.07;3.05;;;;;;;;;;6273574;22;20046;-74
2024/03/12 08:01:49;;;;;;;3.30;3.00;;;;;;;;;;6247054;22;20498;-75
2024/03/12 08:04:19;;;;;;;2.70;2.50;;;;;;;;;;6271966;22;20058;-74
2024/03/12 08:06:45;;;;;;;7.55;3.40;;;;;;;;;;6273761;22;20027;-74
2024/03/12 08:09:11;;;;;;;2.70;2.50;;;;;;;;;;6246080;22;20391;-73
2024/03/12 08:11:36;;;;;;;6.25;2.95;;;;;;;;;;6272134;22;20065;-75
2024/03/12 08:14:03;;;;;;;3.35;2.95;;;;;;;;;;6272272;22;20015;-74
2024/03/12 08:16:29;;;;;;;2.85;2.65;;;;;;;;;;6273958;22;20012;-75
2024/03/12 08:18:58;;;;;;;3.80;2.58;;;;;;;;;;6246966;22;20019;-75
2024/03/12 08:21:27;;;;;;;4.43;2.80;;;;;;;;;;6273695;22;20606;-74
2024/03/12 08:23:58;;;;;;;4.30;2.97;;;;;;;;;;6245080;22;20030;-74
2024/03/12 08:26:26;;;;;;;;;;;;;;;;;;6276019;22;20012;-74
2024/03/12 08:28:52;;;;;;;4.68;2.30;;;;;;;;;;6274656;22;19907;-73
2024/03/12 08:31:18;;;;;;;3.15;2.85;;;;;;;;;;6274188;22;20007;-74
2024/03/12 08:33:44;;;;;;;2.70;2.50;;;;;;;;;;6297141;22;20316;-73
2024/03/12 08:36:10;;;;;;;3.13;2.92;;;;;;;;;;6273402;22;20117;-74
2024/03/12 08:38:36;;;;;;;2.83;2.58;;;;;;;;;;6273721;22;20230;-74
2024/03/12 08:41:02;;;;;;;2.75;2.40;;;;;;;;;;6272921;22;20011;-74
2024/03/12 08:43:28;;;;;;;2.53;2.42;;;;;;;;;;6245212;22;20022;-75
2024/03/12 08:45:54;;;;;;;7.97;2.80;;;;;;;;;;6271901;22;20016;-74
2024/03/12 08:48:39;;;;;;;2.25;2.15;;;;;;;;;;6274183;22;20011;-75
2024/03/12 08:51:05;;;;;;;3.05;2.42;;;;;;;;;;6273338;22;20022;-74
2024/03/12 08:53:30;;;;;;;6.30;2.40;;;;;;;;;;6270853;22;20026;-73
2024/03/12 08:55:59;;;;;;;6.30;2.60;;;;;;;;;;6271731;22;20073;-75
2024/03/12 08:58:25;;;;;;;4.03;2.42;;;;;;;;;;6273006;22;20055;-74
2024/03/12 09:00:51;;;;;;;2.65;2.45;;;;;;;;;;6271623;22;20008;-74
2024/03/12 09:03:18;;;;;;;3.40;2.45;;;;;;;;;;6244948;22;20023;-74
2024/03/12 09:05:43;;;;;;;4.30;2.90;;;;;;;;;;6271476;22;20363;-74
2024/03/12 09:08:09;;;;;;;9.75;2.92;;;;;;;;;;6245887;22;20042;-75
2024/03/12 09:10:36;;;;;;;2.72;1.92;;;;;;;;;;6273192;22;20012;-75
2024/03/12 09:13:03;;;;;;;2.85;2.65;;;;;;;;;;6271434;22;20018;-75
2024/03/12 09:15:30;;;;;;;5.85;2.38;;;;;;;;;;6271796;22;20502;-74
2024/03/12 09:17:55;;;;;;;2.30;2.17;;;;;;;;;;6246603;22;20023;-74
2024/03/12 09:20:24;;;;;;;2.63;2.10;;;;;;;;;;6272765;22;20061;-74
2024/03/12 09:22:50;;;;;;;4.60;2.80;;;;;;;;;;6271939;22;20585;-74
2024/03/12 09:25:19;;;;;;;2.45;2.15;;;;;;;;;;6271582;22;20011;-74
2024/03/12 09:27:46;;;;;;;2.65;2.45;;;;;;;;;;6272031;22;20062;-74
2024/03/12 09:30:12;;;;;;;2.20;2.10;;;;;;;;;;6221669;22;20286;-73
2024/03/12 09:32:39;;;;;;;2.95;2.75;;;;;;;;;;6246624;22;20038;-74
2024/03/12 09:35:06;;;;;;;5.03;2.38;;;;;;;;;;6272525;22;20360;-73
2024/03/12 09:37:35;;;;;;;2.63;2.53;;;;;;;;;;6274461;22;20065;-74
2024/03/12 09:40:03;;;;;;;4.43;2.50;;;;;;;;;;6275336;22;20353;-74
2024/03/12 09:42:30;;;;;;;2.60;2.40;;;;;;;;;;6282862;22;20010;-74
2024/03/12 09:44:56;;;;;;;2.50;2.30;;;;;;;;;;6258103;22;20020;-74
2024/03/12 09:47:22;;;;;;;2.75;2.35;;;;;;;;;;6286778;22;20011;-75
2024/03/12 09:49:49;;;;;;;3.67;2.80;;;;;;;;;;6283018;22;20351;-74
2024/03/12 09:52:14;;;;;;;2.95;2.55;;;;;;;;;;6276148;22;20026;-74
2024/03/12 09:54:43;;;;;;;2.25;2.15;;;;;;;;;;6274181;22;20019;-74
2024/03/12 09:57:11;;;;;;;2.15;2.00;;;;;;;;;;6222692;22;20015;-74
2024/03/12 09:59:40;;;;;;;2.72;2.17;;;;;;;;;;6197813;22;20454;-73
2024/03/12 10:02:07;;;;;;;3.10;2.80;;;;;;;;;;6274668;22;20027;-74
2024/03/12 10:04:33;;;;;;;3.10;2.60;;;;;;;;;;6246429;22;20032;-73
2024/03/12 10:06:59;;;;;;;2.05;1.95;;;;;;;;;;6248000;22;20098;-75
2024/03/12 10:09:28;;;;;;;2.75;2.55;;;;;;;;;;6275380;22;20094;-74
2024/03/12 10:11:54;;;;;;;2.72;2.47;;;;;;;;;;6273376;22;20094;-74
2024/03/12 10:14:22;;;;;;;3.45;2.45;;;;;;;;;;6297726;22;20020;-74
2024/03/12 10:16:49;;;;;;;2.80;2.60;;;;;;;;;;6248522;22;20479;-75
2024/03/12 10:19:15;;;;;;;2.25;2.15;;;;;;;;;;6274420;22;20015;-74
2024/03/12 10:21:41;;;;;;;3.42;2.58;;;;;;;;;;6275043;22;20398;-73
2024/03/12 10:24:22;;;;;;;6.55;3.00;;;;;;;;;;6271682;22;20030;-75
2024/03/12 10:26:49;;;;;;;3.58;2.38;;;;;;;;;;6274700;22;20087;-74
2024/03/12 10:29:18;;;;;;;3.10;2.75;;;;;;;;;;6274203;22;20011;-74
2024/03/12 10:31:45;;;;;;;3.30;3.00;;;;;;;;;;6275058;22;20140;-74
2024/03/12 10:34:14;;;;;;;1.60;1.50;;;;;;;;;;6245379;22;20015;-72
2024/03/12 10:36:43;;;;;;;2.60;2.50;;;;;;;;;;6272829;22;20012;-75
2024/03/12 10:39:12;;;;;;;4.72;2.55;;;;;;;;;;6272351;22;20371;-74
2024/03/12 10:41:39;;;;;;;1.60;1.55;;;;;;;;;;6274496;22;20014;-74
2024/03/12 10:44:10;;;;;;;3.58;2.45;;;;;;;;;;6273744;22;20047;-74
2024/03/12 10:46:43;;;;;;;3.25;2.83;;;;;;;;;;6277610;22;20018;-75
2024/03/12 10:49:12;;;;;;;2.47;2.30;;;;;;;;;;6247364;22;20015;-74
2024/03/12 10:51:42;;;;;;;2.97;2.70;;;;;;;;;;6273809;22;20069;-74
2024/03/12 10:54:13;;;;;;;2.78;2.58;;;;;;;;;;6245993;22;20027;-75
2024/03/12 10:56:39;;;;;;;;;;;;;;;;;;6275038;22;20515;-74
2024/03/12 10:59:09;;;;;;;3.33;2.50;;;;;;;;;;6272513;22;20378;-74
2024/03/12 11:01:35;;;;;;;2.25;2.15;;;;;;;;;;6274434;22;20015;-74
2024/03/12 11:04:01;;;;;;;2.53;2.33;;;;;;;;;;6245715;22;20082;-75
2024/03/12 11:06:27;;;;;;;2.65;2.45;;;;;;;;;;6274003;22;20102;-74
2024/03/12 11:09:17;;;;;;;2.88;2.65;;;;;;;;;;6272179;22;20022;-74
2024/03/12 11:11:43;;;;;;;2.10;2.00;;;;;;;;;;6272553;22;20008;-75
2024/03/12 11:14:09;;;;;;;1.88;1.77;;;;;;;;;;6271312;22;20384;-75
2024/03/12 11:16:35;;;;;;;3.40;2.97;;;;;;;;;;6298088;22;20023;-73
2024/03/12 11:19:18;;;;;;;2.60;2.40;;;;;;;;;;6272253;22;20023;-73
2024/03/12 11:21:47;;;;;;;3.40;3.10;;;;;;;;;;6272650;22;20474;-73
2024/03/12 11:24:13;;;;;;;2.10;2.00;;;;;;;;;;6245460;22;20467;-73
2024/03/12 11:26:42;;;;;;;3.00;2.80;;;;;;;;;;6247276;22;20008;-74
2024/03/12 11:29:11;;;;;;;3.80;3.10;;;;;;;;;;6245972;22;20073;-74
2024/03/12 11:31:38;;;;;;;3.15;2.95;;;;;;;;;;6272275;22;20062;-74
2024/03/12 11:34:05;;;;;;;3.60;2.92;;;;;;;;;;6272629;22;20110;-74
2024/03/12 11:36:31;;;;;;;4.55;3.22;;;;;;;;;;6273716;22;20466;-74
2024/03/12 11:38:58;;;;;;;15.32;2.53;;;;;;;;;;6272332;22;20020;-74
2024/03/12 11:41:25;;;;;;;3.05;2.78;;;;;;;;;;6246915;22;20012;-74
2024/03/12 11:43:51;;;;;;;6.38;2.90;;;;;;;;;;6272831;22;20482;-74
2024/03/12 11:46:39;;;;;;;3.30;3.00;;;;;;;;;;6273635;22;20039;-73
2024/03/12 11:49:06;;;;;;;2.28;2.17;;;;;;;;;;6271728;22;20102;-74
2024/03/12 11:51:50;;;;;;;3.63;2.80;;;;;;;;;;6271887;22;20012;-73
2024/03/12 11:54:47;;;;;;;3.05;2.85;;;;;;;;;;6272025;22;20016;-73
2024/03/12 11:57:21;;;;;;;6.75;2.92;;;;;;;;;;6259407;22;20008;-73
2024/03/12 11:59:47;;;;;;;3.00;2.70;;;;;;;;;;6297622;22;20058;-74
2024/03/12 12:02:15;;;;;;;2.67;2.47;;;;;;;;;;6271943;22;20355;-74
2024/03/12 12:04:41;;;;;;;5.38;3.42;;;;;;;;;;6271671;22;20491;-74
2024/03/12 12:07:08;;;;;;;3.33;2.35;;;;;;;;;;6246567;22;20014;-73
2024/03/12 12:09:34;;;;;;;3.33;2.88;;;;;;;;;;6273226;22;20352;-73
2024/03/12 12:12:00;;;;;;;3.30;3.00;;;;;;;;;;6271958;22;20018;-73
2024/03/12 12:14:26;;;;;;;4.70;3.00;;;;;;;;;;6270862;22;20407;-74
2024/03/12 12:16:58;;;;;;;3.22;3.00;;;;;;;;;;6246323;22;20012;-74
2024/03/12 12:19:25;;;;;;;2.83;2.63;;;;;;;;;;6272831;22;20070;-75
2024/03/12 12:21:51;;;;;;;3.15;2.95;;;;;;;;;;6273322;22;20011;-73
2024/03/12 12:24:17;;;;;;;9.88;3.38;;;;;;;;;;6270340;22;20130;-74
2024/03/12 12:26:43;;;;;;;6.63;3.42;;;;;;;;;;6271989;22;20038;-75
2024/03/12 12:29:09;;;;;;;1.75;1.75;;;;;;;;;;6273203;22;20023;-74
2024/03/12 12:31:35;;;;;;;5.60;3.00;;;;;;;;;;6273013;22;20007;-75
2024/03/12 12:34:01;;;;;;;2.63;2.53;;;;;;;;;;6270166;22;20030;-74
2024/03/12 12:36:31;;;;;;;12.23;2.95;;;;;;;;;;6246523;22;20011;-75
2024/03/12 12:38:58;;;;;;;3.00;2.50;;;;;;;;;;6273497;22;20047;-74
2024/03/12 12:41:24;;;;;;;2.88;2.67;;;;;;;;;;6273303;22;20008;-74
2024/03/12 12:43:53;;;;;;;3.70;2.55;;;;;;;;;;6272002;22;20023;-75
2024/03/12 12:49:04;;;;;;;6.60;2.80;;;;;;;;;;6271503;22;20334;-75
2024/03/12 12:51:30;;;;;;;2.88;2.60;;;;;;;;;;6271187;22;20039;-75
2024/03/12 12:54:02;;;;;;;1.63;1.52;;;;;;;;;;6244618;22;20093;-74
2024/03/12 12:56:28;;;;;;;2.85;2.25;;;;;;;;;;6270983;22;20537;-75
2024/03/12 12:58:54;;;;;;;1.75;1.65;;;;;;;;;;6272601;22;20019;-74
2024/03/12 13:01:26;;;;;;;3.75;2.80;;;;;;;;;;6272152;22;20007;-74
2024/03/12 13:03:53;;;;;;;3.00;2.47;;;;;;;;;;6269673;22;20042;-73
2024/03/12 13:06:22;;;;;;;2.97;2.78;;;;;;;;;;6272724;22;20012;-74
2024/03/12 13:08:51;;;;;;;2.65;2.45;;;;;;;;;;6272875;22;20090;-74
2024/03/12 13:11:18;;;;;;;3.58;2.83;;;;;;;;;;6246108;22;20149;-74
2024/03/12 13:13:44;;;;;;;3.42;2.65;;;;;;;;;;6271950;22;20490;-75
2024/03/12 13:16:28;;;;;;;6.03;2.55;;;;;;;;;;6272713;22;20031;-75
2024/03/12 13:18:58;;;;;;;6.85;3.05;;;;;;;;;;6275359;22;20031;-74
2024/03/12 13:21:33;;;;;;;3.45;3.13;;;;;;;;;;6277086;22;20039;-75
2024/03/12 13:26:44;;;;;;;2.35;2.15;;;;;;;;;;6249555;22;20070;-75
2024/03/12 13:29:10;;;;;;;9.73;3.40;;;;;;;;;;6249429;22;20069;-74
2024/03/12 13:31:55;;;;;;;2.17;1.98;;;;;;;;;;6274994;22;20053;-74
2024/03/12 13:34:21;;;;;;;2.90;2.60;;;;;;;;;;6272323;22;20016;-74
2024/03/12 13:36:47;;;;;;;5.60;3.25;;;;;;;;;;6274972;22;20118;-75
2024/03/12 13:39:14;;;;;;;3.33;2.80;;;;;;;;;;6274856;22;20024;-73
2024/03/12 13:41:41;;;;;;;3.00;2.80;;;;;;;;;;6275154;22;20011;-75
2024/03/12 13:44:07;;;;;;;3.00;2.42;;;;;;;;;;6274419;22;20019;-74
2024/03/12 13:46:33;;;;;;;3.20;2.90;;;;;;;;;;6247495;22;20542;-74
2024/03/12 13:49:11;;;;;;;3.10;2.90;;;;;;;;;;6274833;22;20039;-74
2024/03/12 13:51:37;;;;;;;3.50;2.63;;;;;;;;;;6247993;22;20452;-75
2024/03/12 13:54:07;;;;;;;2.67;2.47;;;;;;;;;;6272357;22;20050;-75
2024/03/12 13:56:36;;;;;;;3.08;2.80;;;;;;;;;;6275284;22;20037;-74
2024/03/12 13:59:05;;;;;;;3.90;3.10;;;;;;;;;;6248056;22;20046;-75
2024/03/12 14:01:31;;;;;;;3.70;3.30;;;;;;;;;;6273752;22;20098;-75
2024/03/12 14:03:57;;;;;;;3.47;3.10;;;;;;;;;;6273420;22;20043;-75
2024/03/12 14:06:23;;;;;;;4.55;2.72;;;;;;;;;;6248061;22;20069;-75
2024/03/12 14:08:50;;;;;;;3.22;2.92;;;;;;;;;;6273288;22;20391;-74
2024/03/12 14:11:16;;;;;;;3.20;3.00;;;;;;;;;;6273424;22;20099;-74
2024/03/12 14:14:02;;;;;;;4.78;3.17;;;;;;;;;;6217404;22;20379;-75
2024/03/12 14:17:02;;;;;;;3.03;2.80;;;;;;;;;;6270883;22;20018;-74
2024/03/12 14:19:28;;;;;;;3.33;2.97;;;;;;;;;;6272422;22;20021;-75
2024/03/12 14:21:54;;;;;;;3.03;2.83;;;;;;;;;;6222323;22;20110;-74
2024/03/12 14:24:20;;;;;;;3.67;2.58;;;;;;;;;;6195192;22;20058;-75
2024/03/12 14:26:46;;;;;;;3.20;3.00;;;;;;;;;;6248346;22;20004;-75
2024/03/12 14:29:12;;;;;;;4.82;2.05;;;;;;;;;;6301512;22;20016;-76
2024/03/12 14:31:41;;;;;;;4.82;2.97;;;;;;;;;;6248613;22;20004;-76
2024/03/12 14:34:08;;;;;;;9.15;3.08;;;;;;;;;;6170193;22;20033;-75
2024/03/12 14:36:40;;;;;;;4.43;3.00;;;;;;;;;;6077806;23;20010;-75
2024/03/12 14:41:50;;;;;;;3.10;2.85;;;;;;;;;;6201564;23;20011;-74
2024/03/12 14:44:17;;;;;;;3.13;2.88;;;;;;;;;;6221437;22;20057;-75
2024/03/12 14:46:45;;;;;;;3.67;3.38;;;;;;;;;;6197189;22;20012;-75
2024/03/12 14:49:14;;;;;;;4.88;2.75;;;;;;;;;;6197216;22;20007;-75
2024/03/12 14:51:40;;;;;;;10.60;3.20;;;;;;;;;;6247472;22;20094;-74
2024/03/12 14:54:07;;;;;;;3.22;2.55;;;;;;;;;;6164755;22;20022;-74
2024/03/12 14:56:33;;;;;;;4.93;2.80;;;;;;;;;;6088616;23;20512;-75
2024/03/12 14:58:59;;;;;;;3.45;2.92;;;;;;;;;;6088771;23;20026;-75
2024/03/12 15:01:25;;;;;;;2.97;2.67;;;;;;;;;;6088983;23;20071;-75
2024/03/12 15:04:18;;;;;;;3.13;2.90;;;;;;;;;;6085687;23;20116;-74
2024/03/12 15:06:44;;;;;;;6.45;3.10;;;;;;;;;;6171232;23;20018;-75
2024/03/12 15:09:13;;;;;;;4.10;3.13;;;;;;;;;;6117358;23;20407;-75
2024/03/12 15:11:42;;;;;;;4.05;3.72;;;;;;;;;;6095686;23;20036;-75